Saint Francisville, IL (62460)

12:16 AM CDT on October 01, 2016 (GMT -0500)
McClure Farms | | Change Station

Elev 430 ft 38.65 °N, 87.66 °W | Updated 8 seconds ago

Mostly Cloudy
Mostly Cloudy
59.9 °F
Feels Like 59.9 °F
N
0.0
Wind Variable Wind from SSE
Gusts 0.0 mph

Today
High -- | Low -- °F
--% Chance of Precip.
Yesterday
High -- | Low -- °F
Precip. -- in
Pressure 30.00 in
Visibility 7.0 miles
Clouds Mostly Cloudy 8000 ft
Dew Point 60 °F
Humidity 99%
Rainfall 0.00 in
Snow Depth Not available.
6:46 AM 6:32 PM
New Moon, 0% visible
METAR KAJG 010455Z AUTO 13003KT 7SM BKN080 15/14 A3000 RMK AO2 T01460140
Pressure 30.00 in
Visibility 7.0 miles
Clouds Mostly Cloudy 8000 ft
Dew Point 60 °F
Humidity 99%
Rainfall 0.00 in
Snow Depth Not available.
6:46 AM 6:32 PM
New Moon, 0% visible
METAR KAJG 010455Z AUTO 13003KT 7SM BKN080 15/14 A3000 RMK AO2 T01460140

10-Day Weather Forecast

Almanac

Astronomy

Oct. 01, 2016 Rise Set
Actual Time
Civil Twilight
Nautical Twilight
Astronomical Twilight
Moon
Length of Visible Light
Length of Day
Tomorrow will be .
, % of the Moon is Illuminated

Today's Extremes

State Highs State Lows

Community

WunderPhotos

Upload Photos

1,942,894 photos uploaded!

WunderBlog® & News

Nearby

Air Quality

  Air Quality AQ Index Pollutant
Not available.

Snow Depth

Station Depth Elevation

Earthquake Activity

City Distance Mag. Time & Date
Minimum magnitude displayed is 2.5.

Coastal Water Temperatures

Place Temperature

Stations

Nearby Weather Stations

Station Location Temp. Windchill Dew Point Humidity Wind Precip. Elev Updated Type
                   

Watches & Warnings

There are currently no watches in effect.